Time;durP1;ratioP1;P1;durP2;ratioP2;P2;SDS_P1;SDS_P2;PMS_P1;PMS_P2;Temp;Humidity;BMP_temperature;BMP_pressure;BME280_temperature;BME280_humidity;BME280_pressure;Samples;Min_cycle;Max_cycle;Signal;HPM_P1;HPM_P2
2023/10/21 00:00:20;;;;;;;0.10;0.10;;;12.10;99.90;;;;;;5023754;28;20033;-80
2023/10/21 00:02:46;;;;;;;0.00;0.00;;;12.10;99.90;;;;;;5017723;28;20267;-84
2023/10/21 00:05:12;;;;;;;0.00;0.00;;;12.00;99.90;;;;;;5018081;28;20051;-80
2023/10/21 00:07:37;;;;;;;0.00;0.00;;;12.00;99.90;;;;;;5023374;28;20063;-80
2023/10/21 00:10:06;;;;;;;0.00;0.00;;;12.00;99.90;;;;;;5028892;28;20056;-83
2023/10/21 00:12:35;;;;;;;0.05;0.05;;;12.00;99.90;;;;;;5023126;28;20026;-81
2023/10/21 00:15:01;;;;;;;0.00;0.00;;;12.10;99.90;;;;;;5022664;28;20038;-79
2023/10/21 00:17:28;;;;;;;0.30;0.30;;;12.00;99.90;;;;;;5022066;28;20025;-80
2023/10/21 00:19:54;;;;;;;0.00;0.00;;;12.00;99.90;;;;;;5022447;28;20032;-82
2023/10/21 00:22:20;;;;;;;0.00;0.00;;;12.00;99.90;;;;;;5022675;28;20029;-78
2023/10/21 00:24:46;;;;;;;0.03;0.03;;;11.90;99.90;;;;;;5019098;28;20037;-80
2023/10/21 00:27:11;;;;;;;0.00;0.00;;;11.80;99.90;;;;;;5024385;28;20025;-79
2023/10/21 00:29:37;;;;;;;0.00;0.00;;;12.00;99.90;;;;;;5025685;28;20057;-78
2023/10/21 00:32:04;;;;;;;0.00;0.00;;;11.80;99.90;;;;;;5023842;28;20033;-81
2023/10/21 00:34:30;;;;;;;;;;;11.70;99.90;;;;;;5023736;28;20017;-79
2023/10/21 00:36:56;;;;;;;0.00;0.00;;;11.80;99.90;;;;;;5023347;28;19913;-77
2023/10/21 00:39:22;;;;;;;0.00;0.00;;;11.90;99.90;;;;;;5023548;28;20030;-77
2023/10/21 00:41:47;;;;;;;0.00;0.00;;;11.90;99.90;;;;;;5023119;28;20049;-82
2023/10/21 00:44:13;;;;;;;0.00;0.00;;;11.90;99.90;;;;;;5019108;28;20034;-81
2023/10/21 00:46:40;;;;;;;0.22;0.22;;;12.00;99.90;;;;;;5023436;28;20025;-80
2023/10/21 00:49:06;;;;;;;0.00;0.00;;;12.00;99.90;;;;;;5022250;28;20021;-80
2023/10/21 00:51:33;;;;;;;0.00;0.00;;;11.90;99.90;;;;;;5023628;28;20405;-79
2023/10/21 00:54:00;;;;;;;;;;;11.90;99.90;;;;;;5022917;28;20029;-79
2023/10/21 00:56:26;;;;;;;0.10;0.10;;;11.80;99.90;;;;;;5023255;28;19917;-79
2023/10/21 00:58:51;;;;;;;0.03;0.03;;;11.80;99.90;;;;;;5022438;28;20087;-78
2023/10/21 01:01:17;;;;;;;0.00;0.00;;;11.70;99.90;;;;;;5028733;28;20021;-80
2023/10/21 01:03:43;;;;;;;0.70;0.70;;;11.60;99.90;;;;;;5023157;28;20090;-81
2023/10/21 01:06:09;;;;;;;0.10;0.10;;;11.50;99.90;;;;;;5023055;28;20025;-79
2023/10/21 01:08:45;;;;;;;0.00;0.00;;;11.30;99.90;;;;;;5026619;28;20009;-80
2023/10/21 01:11:12;;;;;;;0.22;0.22;;;11.30;99.90;;;;;;5023488;28;20076;-79
2023/10/21 01:13:38;;;;;;;0.00;0.00;;;11.50;99.90;;;;;;5020660;28;20651;-80
2023/10/21 01:16:04;;;;;;;0.00;0.00;;;11.60;99.90;;;;;;5022864;28;20064;-81
2023/10/21 01:18:33;;;;;;;0.00;0.00;;;11.60;99.90;;;;;;5035200;28;20171;-80
2023/10/21 01:21:01;;;;;;;0.10;0.10;;;11.60;99.90;;;;;;5019840;28;20232;-80
2023/10/21 01:23:27;;;;;;;0.00;0.00;;;11.70;99.90;;;;;;5029946;28;20026;-82
2023/10/21 01:25:54;;;;;;;0.00;0.00;;;11.80;99.90;;;;;;5026002;28;20099;-82
2023/10/21 01:28:19;;;;;;;0.10;0.10;;;11.90;99.90;;;;;;5026102;28;20132;-81
2023/10/21 01:30:45;;;;;;;0.10;0.10;;;11.90;99.90;;;;;;5026465;28;20635;-80
2023/10/21 01:33:11;;;;;;;0.00;0.00;;;12.00;99.90;;;;;;5026691;28;20461;-80
2023/10/21 01:35:36;;;;;;;0.00;0.00;;;12.00;99.90;;;;;;5030891;28;20052;-80
2023/10/21 01:38:02;;;;;;;0.00;0.00;;;11.90;99.90;;;;;;5023082;28;20060;-78
2023/10/21 01:40:28;;;;;;;0.00;0.00;;;11.80;99.90;;;;;;5030221;28;20078;-84
2023/10/21 01:42:54;;;;;;;0.00;0.00;;;11.70;99.90;;;;;;5029080;28;20021;-82
2023/10/21 01:45:19;;;;;;;0.00;0.00;;;11.60;99.90;;;;;;5025482;28;20380;-79
2023/10/21 01:47:45;;;;;;;0.10;0.10;;;11.60;99.90;;;;;;5025928;28;20025;-80
2023/10/21 01:50:11;;;;;;;0.10;0.10;;;11.50;99.90;;;;;;5026127;28;20531;-79
2023/10/21 01:52:38;;;;;;;0.00;0.00;;;11.50;99.90;;;;;;5026091;28;20034;-81
2023/10/21 01:55:11;;;;;;;0.08;0.08;;;11.40;99.90;;;;;;5025632;28;20030;-83
2023/10/21 01:57:38;;;;;;;0.10;0.10;;;11.40;99.90;;;;;;5025818;28;20036;-79
2023/10/21 02:00:08;;;;;;;0.00;0.00;;;11.70;99.90;;;;;;5024908;28;20116;-81
2023/10/21 02:02:35;;;;;;;0.00;0.00;;;11.90;99.90;;;;;;5032341;28;20022;-79
2023/10/21 02:05:00;;;;;;;0.00;0.00;;;11.70;99.90;;;;;;5027652;28;20025;-79
2023/10/21 02:07:26;;;;;;;0.00;0.00;;;11.80;99.90;;;;;;5028758;28;20029;-81
2023/10/21 02:09:52;;;;;;;0.00;0.00;;;11.90;99.90;;;;;;5025183;28;20033;-80
2023/10/21 02:12:17;;;;;;;0.10;0.10;;;11.70;99.90;;;;;;5025311;28;20053;-80
2023/10/21 02:14:43;;;;;;;0.10;0.10;;;11.60;99.90;;;;;;5024868;28;20085;-81
2023/10/21 02:17:09;;;;;;;0.00;0.00;;;11.80;99.90;;;;;;5025477;28;20496;-79
2023/10/21 02:19:35;;;;;;;0.10;0.10;;;11.90;99.90;;;;;;5024405;28;20581;-80
2023/10/21 02:22:00;;;;;;;0.00;0.00;;;11.90;99.90;;;;;;5025709;28;20100;-80
2023/10/21 02:24:26;;;;;;;0.00;0.00;;;11.90;99.90;;;;;;5036165;28;20029;-80
2023/10/21 02:26:52;;;;;;;0.00;0.00;;;11.80;99.90;;;;;;5029943;28;20040;-80
2023/10/21 02:29:18;;;;;;;0.00;0.00;;;11.90;99.90;;;;;;5029419;28;20904;-80
2023/10/21 02:31:43;;;;;;;0.10;0.10;;;11.80;99.90;;;;;;5025063;28;20038;-82
2023/10/21 02:34:09;;;;;;;0.00;0.00;;;11.90;99.90;;;;;;5023760;28;20025;-79
2023/10/21 02:36:35;;;;;;;0.05;0.05;;;11.90;99.90;;;;;;5024857;28;20021;-80
2023/10/21 02:39:01;;;;;;;0.10;0.10;;;11.90;99.90;;;;;;5021445;28;20113;-80
2023/10/21 02:41:26;;;;;;;0.00;0.00;;;12.00;99.90;;;;;;5025421;28;20043;-79
2023/10/21 02:43:53;;;;;;;0.10;0.10;;;12.00;99.90;;;;;;5018158;28;20033;-79
2023/10/21 02:46:19;;;;;;;0.00;0.00;;;12.00;99.90;;;;;;5024976;28;20152;-83
2023/10/21 02:48:45;;;;;;;0.00;0.00;;;12.10;99.90;;;;;;5024651;28;20268;-80
2023/10/21 02:51:11;;;;;;;0.10;0.10;;;12.00;99.90;;;;;;5021568;28;20029;-78
2023/10/21 02:53:37;;;;;;;0.00;0.00;;;12.00;99.90;;;;;;5024524;28;20029;-80
2023/10/21 02:56:07;;;;;;;4.53;3.17;;;12.00;99.90;;;;;;5025608;28;20030;-82
2023/10/21 02:58:34;;;;;;;0.10;0.10;;;12.00;99.90;;;;;;5018643;28;20870;-81
2023/10/21 03:01:13;;;;;;;0.32;0.32;;;11.90;99.90;;;;;;5024911;28;20029;-78
2023/10/21 03:03:39;;;;;;;0.10;0.10;;;11.90;99.90;;;;;;5024554;28;20022;-79
2023/10/21 03:06:04;;;;;;;0.10;0.10;;;11.80;99.90;;;;;;5030077;28;20534;-79
2023/10/21 03:08:30;;;;;;;0.07;0.07;;;11.80;99.90;;;;;;5024378;28;20032;-77
2023/10/21 03:10:56;;;;;;;0.03;0.03;;;11.70;99.90;;;;;;5022854;28;20129;-77
2023/10/21 03:13:23;;;;;;;0.08;0.08;;;11.60;99.90;;;;;;5024354;28;20034;-78
2023/10/21 03:15:48;;;;;;;0.00;0.00;;;11.60;99.90;;;;;;5024275;28;20026;-80
2023/10/21 03:18:14;;;;;;;0.00;0.00;;;11.70;99.90;;;;;;5024278;28;20052;-80
2023/10/21 03:20:40;;;;;;;0.00;0.00;;;11.70;99.90;;;;;;5024108;28;20048;-80
2023/10/21 03:23:05;;;;;;;0.00;0.00;;;11.70;99.90;;;;;;5024349;28;20033;-80
2023/10/21 03:25:33;;;;;;;0.00;0.00;;;11.80;99.90;;;;;;5019826;28;20033;-78
2023/10/21 03:27:59;;;;;;;0.10;0.10;;;11.80;99.90;;;;;;5027066;28;20021;-83
2023/10/21 03:30:25;;;;;;;0.05;0.05;;;11.80;99.90;;;;;;5023546;28;20676;-79
2023/10/21 03:32:50;;;;;;;0.00;0.00;;;11.80;99.90;;;;;;5024083;28;20025;-77
2023/10/21 03:35:16;;;;;;;0.10;0.10;;;11.80;99.90;;;;;;5027760;28;20104;-77
2023/10/21 03:37:42;;;;;;;0.20;0.20;;;11.80;99.90;;;;;;5020992;28;20129;-78
2023/10/21 03:40:10;;;;;;;0.03;0.03;;;11.80;99.90;;;;;;5023698;28;20757;-78
2023/10/21 03:42:37;;;;;;;0.00;0.00;;;11.90;99.90;;;;;;5021010;28;20098;-78
2023/10/21 03:45:04;;;;;;;0.10;0.10;;;11.90;99.90;;;;;;5023315;28;20568;-80
2023/10/21 03:47:30;;;;;;;;;;;12.00;99.90;;;;;;5025154;28;20025;-77
2023/10/21 03:49:57;;;;;;;0.00;0.00;;;12.00;99.90;;;;;;5025064;28;19913;-78
2023/10/21 03:52:22;;;;;;;;;;;11.90;99.90;;;;;;5023924;28;20025;-78
2023/10/21 03:54:48;;;;;;;0.53;0.53;;;11.90;99.90;;;;;;5023638;28;19934;-80
2023/10/21 03:57:14;;;;;;;0.00;0.00;;;11.80;99.90;;;;;;5023634;28;20176;-79
2023/10/21 03:59:39;;;;;;;0.10;0.10;;;11.80;99.90;;;;;;5022788;28;20045;-79
2023/10/21 04:02:05;;;;;;;0.00;0.00;;;11.80;99.90;;;;;;5023900;28;20030;-79
2023/10/21 04:04:31;;;;;;;0.00;0.00;;;11.80;99.90;;;;;;5023304;28;20077;-79
2023/10/21 04:06:57;;;;;;;0.10;0.10;;;11.70;99.90;;;;;;5027332;28;20503;-79
2023/10/21 04:09:23;;;;;;;0.00;0.00;;;11.70;99.90;;;;;;5021128;28;20048;-79
2023/10/21 04:11:49;;;;;;;0.10;0.10;;;11.80;99.90;;;;;;5023229;28;20514;-80
2023/10/21 04:14:15;;;;;;;0.10;0.10;;;11.70;99.90;;;;;;5023105;28;20108;-79
2023/10/21 04:16:44;;;;;;;0.00;0.00;;;11.70;99.90;;;;;;5019986;28;20025;-78
2023/10/21 04:19:10;;;;;;;0.00;0.00;;;11.70;99.90;;;;;;5019575;28;20092;-79
2023/10/21 04:21:36;;;;;;;0.10;0.10;;;11.70;99.90;;;;;;5023123;28;20092;-79
2023/10/21 04:24:03;;;;;;;0.10;0.10;;;11.70;99.90;;;;;;5022175;28;20037;-79
2023/10/21 04:26:29;;;;;;;;;;;11.70;99.90;;;;;;5021236;28;20040;-78
2023/10/21 04:28:55;;;;;;;0.00;0.00;;;11.70;99.90;;;;;;5022666;28;20491;-81
2023/10/21 04:31:20;;;;;;;0.00;0.00;;;11.50;99.90;;;;;;5027300;28;20072;-81
2023/10/21 04:33:46;;;;;;;0.07;0.07;;;11.40;99.90;;;;;;5023242;28;20489;-80
2023/10/21 04:36:16;;;;;;;0.00;0.00;;;11.40;99.90;;;;;;5023241;28;20026;-78
2023/10/21 04:38:43;;;;;;;0.00;0.00;;;11.40;99.90;;;;;;5022889;28;20026;-79
2023/10/21 04:41:10;;;;;;;0.00;0.00;;;11.40;99.90;;;;;;5026468;28;20120;-79
2023/10/21 04:43:36;;;;;;;0.10;0.10;;;11.30;99.90;;;;;;5023053;28;20030;-78
2023/10/21 04:46:01;;;;;;;0.03;0.03;;;11.20;99.90;;;;;;5020291;28;20400;-79
2023/10/21 04:48:27;;;;;;;0.00;0.00;;;11.20;99.90;;;;;;5025122;28;20040;-79
2023/10/21 04:50:53;;;;;;;0.00;0.00;;;11.30;99.90;;;;;;5027845;28;20033;-81
2023/10/21 04:53:19;;;;;;;0.00;0.00;;;11.40;99.90;;;;;;5027410;28;20029;-80
2023/10/21 04:55:44;;;;;;;0.10;0.10;;;11.60;99.90;;;;;;5025655;28;20079;-83
2023/10/21 04:58:10;;;;;;;0.03;0.03;;;11.60;99.90;;;;;;5027303;28;20428;-76
2023/10/21 05:00:36;;;;;;;0.00;0.00;;;11.40;99.90;;;;;;5026220;28;20055;-78
2023/10/21 05:03:02;;;;;;;0.00;0.00;;;11.50;99.90;;;;;;5023090;28;20033;-78
2023/10/21 05:05:27;;;;;;;0.03;0.03;;;11.50;99.90;;;;;;5016928;28;20117;-79
2023/10/21 05:07:53;;;;;;;0.10;0.10;;;11.40;99.90;;;;;;5019287;28;20067;-80
2023/10/21 05:10:19;;;;;;;0.00;0.00;;;11.50;99.90;;;;;;5032294;28;20593;-79
2023/10/21 05:12:45;;;;;;;0.00;0.00;;;11.50;99.90;;;;;;5033185;28;20663;-79
2023/10/21 05:15:11;;;;;;;0.00;0.00;;;11.60;99.90;;;;;;5025814;28;20121;-78
2023/10/21 05:17:37;;;;;;;0.10;0.10;;;11.60;99.90;;;;;;5030082;28;20554;-79
2023/10/21 05:20:03;;;;;;;0.00;0.00;;;11.70;99.90;;;;;;5038784;28;20025;-79
2023/10/21 05:22:29;;;;;;;0.00;0.00;;;11.60;99.90;;;;;;5033485;28;20036;-79
2023/10/21 05:24:55;;;;;;;1.17;1.17;;;11.60;99.90;;;;;;5026261;28;20463;-79
2023/10/21 05:27:21;;;;;;;0.00;0.00;;;11.50;99.90;;;;;;5026811;28;20029;-78
2023/10/21 05:29:47;;;;;;;0.00;0.00;;;11.60;99.90;;;;;;5025432;28;20112;-79
2023/10/21 05:32:14;;;;;;;2.28;2.10;;;11.40;99.90;;;;;;5026945;28;20076;-78
2023/10/21 05:34:41;;;;;;;0.03;0.03;;;11.40;99.90;;;;;;5026527;28;20021;-79
2023/10/21 05:37:07;;;;;;;0.00;0.00;;;11.50;99.90;;;;;;5031756;28;20108;-81
2023/10/21 05:39:32;;;;;;;0.00;0.00;;;11.50;99.90;;;;;;5027210;28;20116;-80
2023/10/21 05:41:58;;;;;;;0.00;0.00;;;11.60;99.90;;;;;;5025999;28;20025;-81
2023/10/21 05:44:24;;;;;;;0.10;0.10;;;11.50;99.90;;;;;;5025126;28;20026;-79
2023/10/21 05:46:51;;;;;;;0.00;0.00;;;11.50;99.90;;;;;;5028443;28;20037;-78
2023/10/21 05:49:18;;;;;;;0.10;0.10;;;11.50;99.90;;;;;;5025578;28;20064;-79
2023/10/21 05:51:43;;;;;;;0.10;0.10;;;11.40;99.90;;;;;;5025016;28;20038;-79
2023/10/21 05:54:09;;;;;;;0.10;0.10;;;11.20;99.90;;;;;;5029492;28;20040;-81
2023/10/21 05:56:35;;;;;;;0.00;0.00;;;11.10;99.90;;;;;;5025104;28;20546;-82
2023/10/21 05:59:00;;;;;;;0.00;0.00;;;11.30;99.90;;;;;;5024742;28;20064;-79
2023/10/21 06:01:26;;;;;;;0.05;0.05;;;11.40;99.90;;;;;;5029455;28;20026;-78
2023/10/21 06:03:53;;;;;;;0.10;0.10;;;11.50;99.90;;;;;;5029307;28;20033;-78
2023/10/21 06:06:19;;;;;;;0.10;0.10;;;11.60;99.90;;;;;;5032215;28;20021;-80
2023/10/21 06:08:44;;;;;;;0.00;0.00;;;11.50;99.90;;;;;;5027685;28;20527;-80
2023/10/21 06:11:10;;;;;;;0.00;0.00;;;11.50;99.90;;;;;;5029832;28;20444;-79
2023/10/21 06:13:36;;;;;;;0.00;0.00;;;11.50;99.90;;;;;;5028107;28;20056;-78
2023/10/21 06:16:02;;;;;;;0.10;0.10;;;11.50;99.90;;;;;;5025436;28;20182;-78
2023/10/21 06:18:28;;;;;;;0.10;0.10;;;11.50;99.90;;;;;;5024923;28;20028;-79
2023/10/21 06:20:54;;;;;;;0.30;0.30;;;11.40;99.90;;;;;;5024811;28;20029;-79
2023/10/21 06:23:19;;;;;;;1.08;1.08;;;11.30;99.90;;;;;;5027739;28;20492;-80
2023/10/21 06:25:45;;;;;;;0.10;0.10;;;11.40;99.90;;;;;;5024700;28;20028;-88
2023/10/21 06:28:13;;;;;;;0.00;0.00;;;11.40;99.90;;;;;;5020587;28;20036;-82
2023/10/21 06:30:42;;;;;;;0.10;0.10;;;11.20;99.90;;;;;;5023100;28;20056;-83
2023/10/21 06:33:11;;;;;;;2.83;1.23;;;11.10;99.90;;;;;;5027763;28;20037;-79
2023/10/21 06:35:38;;;;;;;0.00;0.00;;;11.10;99.90;;;;;;5024615;28;20072;-79
2023/10/21 06:38:07;;;;;;;0.08;0.08;;;11.20;99.90;;;;;;5023972;28;20025;-79
2023/10/21 06:40:34;;;;;;;0.10;0.10;;;11.20;99.90;;;;;;5024565;28;20056;-85
2023/10/21 06:43:00;;;;;;;0.20;0.20;;;11.30;99.90;;;;;;5023280;28;20481;-83
2023/10/21 06:45:26;;;;;;;0.03;0.03;;;11.40;99.90;;;;;;5019313;28;20079;-80
2023/10/21 06:47:51;;;;;;;0.03;0.03;;;11.50;99.90;;;;;;5019458;28;20809;-77
2023/10/21 06:50:18;;;;;;;0.00;0.00;;;11.60;99.90;;;;;;5024706;28;20542;-79
2023/10/21 06:52:44;;;;;;;0.00;0.00;;;11.60;99.90;;;;;;5037103;28;20025;-82
2023/10/21 06:55:10;;;;;;;0.00;0.00;;;11.70;99.90;;;;;;5024059;28;20033;-80
2023/10/21 06:57:36;;;;;;;0.00;0.00;;;11.80;99.90;;;;;;5028464;28;20124;-81
2023/10/21 07:00:03;;;;;;;0.00;0.00;;;11.80;99.90;;;;;;5038147;28;20132;-82
2023/10/21 07:02:29;;;;;;;;;;;11.80;99.90;;;;;;5024326;28;20283;-81
2023/10/21 07:04:56;;;;;;;0.10;0.10;;;11.80;99.90;;;;;;5024636;28;20423;-80
2023/10/21 07:07:22;;;;;;;0.08;0.08;;;11.80;99.90;;;;;;5021784;28;20187;-79
2023/10/21 07:09:48;;;;;;;0.00;0.00;;;11.90;99.90;;;;;;5024060;28;20195;-81
2023/10/21 07:12:14;;;;;;;0.00;0.00;;;12.00;99.90;;;;;;5020061;28;20103;-80
2023/10/21 07:14:39;;;;;;;0.00;0.00;;;12.00;99.90;;;;;;5016437;28;20414;-79
2023/10/21 07:17:05;;;;;;;0.00;0.00;;;12.00;99.90;;;;;;5024240;28;20112;-83
2023/10/21 07:19:31;;;;;;;0.00;0.00;;;12.00;99.90;;;;;;5026440;28;20493;-79
2023/10/21 07:21:56;;;;;;;0.10;0.10;;;12.00;99.90;;;;;;5027091;28;20041;-79
2023/10/21 07:24:22;;;;;;;0.00;0.00;;;12.40;99.90;;;;;;5029986;28;20144;-79
2023/10/21 07:26:48;;;;;;;0.10;0.10;;;12.30;99.90;;;;;;5023239;28;20033;-82
2023/10/21 07:29:13;;;;;;;0.00;0.00;;;13.00;99.90;;;;;;5024839;28;20033;-82
2023/10/21 07:31:41;;;;;;;0.00;0.00;;;13.80;99.90;;;;;;5026931;28;20583;-82
2023/10/21 07:34:07;;;;;;;0.00;0.00;;;12.80;99.90;;;;;;5026065;28;20573;-80
2023/10/21 07:36:34;;;;;;;0.73;0.37;;;12.60;99.90;;;;;;5026104;28;20025;-80
2023/10/21 07:38:59;;;;;;;0.08;0.08;;;13.20;99.90;;;;;;5033806;28;20500;-79
2023/10/21 07:41:25;;;;;;;0.17;0.17;;;13.60;99.90;;;;;;5024688;28;20144;-82
2023/10/21 07:43:51;;;;;;;0.10;0.10;;;15.20;99.90;;;;;;5024393;28;20026;-88
2023/10/21 07:46:16;;;;;;;0.00;0.00;;;16.00;99.90;;;;;;5031079;28;20060;-84
2023/10/21 07:48:42;;;;;;;0.00;0.00;;;16.70;99.40;;;;;;5025352;28;20029;-89
2023/10/21 07:51:08;;;;;;;0.17;0.17;;;15.00;99.90;;;;;;5021863;28;20156;-85
2023/10/21 07:53:34;;;;;;;0.00;0.00;;;14.10;99.90;;;;;;5023355;28;20149;-80
2023/10/21 07:56:00;;;;;;;0.10;0.10;;;13.50;99.90;;;;;;5018364;28;20037;-83
2023/10/21 07:58:26;;;;;;;0.10;0.10;;;13.50;99.90;;;;;;5014771;28;20049;-87
2023/10/21 08:00:51;;;;;;;0.00;0.00;;;14.70;99.90;;;;;;4994950;28;20497;-83
2023/10/21 08:03:17;;;;;;;0.00;0.00;;;14.30;99.90;;;;;;4992224;28;20100;-79
2023/10/21 08:05:43;;;;;;;0.17;0.17;;;13.50;99.90;;;;;;4973359;28;21252;-79
2023/10/21 08:08:10;;;;;;;0.10;0.10;;;13.40;99.90;;;;;;4985984;28;20030;-79
2023/10/21 08:10:36;;;;;;;0.10;0.10;;;13.60;99.90;;;;;;5001755;28;20509;-78
2023/10/21 08:13:02;;;;;;;0.00;0.00;;;13.20;99.90;;;;;;4996410;28;20038;-80
2023/10/21 08:15:29;;;;;;;0.00;0.00;;;13.30;99.90;;;;;;5002701;28;20034;-83
2023/10/21 08:17:56;;;;;;;0.10;0.10;;;13.60;99.90;;;;;;5002054;28;20022;-79
2023/10/21 08:20:21;;;;;;;0.00;0.00;;;14.20;99.90;;;;;;5001399;28;20489;-81
2023/10/21 08:22:47;;;;;;;0.10;0.10;;;14.30;99.90;;;;;;4985149;28;20048;-84
2023/10/21 08:25:13;;;;;;;0.00;0.00;;;14.10;99.90;;;;;;5009241;28;21538;-79
2023/10/21 08:27:39;;;;;;;0.00;0.00;;;13.90;99.90;;;;;;5002855;28;20026;-80
2023/10/21 08:30:09;;;;;;;0.00;0.00;;;13.80;99.90;;;;;;5003059;28;20122;-81
2023/10/21 08:32:35;;;;;;;0.10;0.10;;;14.50;99.90;;;;;;5001186;28;20038;-80
2023/10/21 08:35:01;;;;;;;0.00;0.00;;;14.80;99.90;;;;;;5003181;28;20112;-83
2023/10/21 08:37:26;;;;;;;0.00;0.00;;;14.90;99.90;;;;;;5001559;28;20653;-82
2023/10/21 08:39:52;;;;;;;0.00;0.00;;;16.40;99.90;;;;;;5000138;28;20034;-83
2023/10/21 08:42:18;;;;;;;0.00;0.00;;;15.60;99.90;;;;;;4997610;28;20030;-81
2023/10/21 08:44:45;;;;;;;0.00;0.00;;;14.60;99.90;;;;;;5002408;28;20022;-79
2023/10/21 08:47:13;;;;;;;0.00;0.00;;;14.50;99.90;;;;;;5000425;28;20291;-80
2023/10/21 08:49:41;;;;;;;0.00;0.00;;;14.30;99.90;;;;;;5005994;28;20417;-81
2023/10/21 08:52:12;;;;;;;0.03;0.03;;;14.40;99.90;;;;;;5003013;28;20032;-82
2023/10/21 08:54:40;;;;;;;0.00;0.00;;;14.50;99.90;;;;;;5002363;28;20058;-80
2023/10/21 08:57:06;;;;;;;0.00;0.00;;;14.90;99.90;;;;;;4996878;28;20030;-86
2023/10/21 08:59:32;;;;;;;0.00;0.00;;;15.20;99.90;;;;;;5019019;28;20068;-85
2023/10/21 09:01:58;;;;;;;0.00;0.00;;;15.00;99.90;;;;;;5032179;28;20033;-84
2023/10/21 09:04:24;;;;;;;0.00;0.00;;;16.20;99.90;;;;;;5027527;28;20754;-81
2023/10/21 09:06:58;;;;;;;0.00;0.00;;;16.10;99.70;;;;;;5028947;28;20129;-85
2023/10/21 09:09:26;;;;;;;0.00;0.00;;;15.80;99.90;;;;;;5024076;28;20028;-82
2023/10/21 09:12:13;;;;;;;0.00;0.00;;;15.00;99.90;;;;;;5027507;28;20045;-86
2023/10/21 09:14:56;;;;;;;0.00;0.00;;;14.60;99.90;;;;;;5020970;28;20038;-81
2023/10/21 09:17:36;;;;;;;0.03;0.03;;;14.40;99.90;;;;;;5034838;28;20041;-83
2023/10/21 09:20:11;;;;;;;0.00;0.00;;;14.50;99.90;;;;;;5026623;28;20115;-88
2023/10/21 09:22:37;;;;;;;1.02;1.00;;;14.20;99.90;;;;;;5040976;28;20032;-85
2023/10/21 09:25:20;;;;;;;0.00;0.00;;;13.80;99.90;;;;;;5038428;28;20021;-82
2023/10/21 09:27:53;;;;;;;0.00;0.00;;;13.90;99.90;;;;;;5048584;28;20053;-84
2023/10/21 09:30:22;;;;;;;0.00;0.00;;;14.10;99.90;;;;;;5023990;28;20021;-83
2023/10/21 09:32:51;;;;;;;0.30;0.30;;;14.10;99.90;;;;;;5045451;28;20864;-86
2023/10/21 09:35:22;;;;;;;1.67;1.55;;;13.70;99.90;;;;;;5042083;28;20033;-87
2023/10/21 09:37:48;;;;;;;0.73;0.73;;;13.80;99.90;;;;;;5046064;28;21142;-87
2023/10/21 09:40:15;;;;;;;0.00;0.00;;;13.90;99.90;;;;;;5045793;28;20025;-86
2023/10/21 09:42:44;;;;;;;;;;;14.20;99.90;;;;;;5045270;28;20036;-88
2023/10/21 09:45:16;;;;;;;0.00;0.00;;;14.30;99.90;;;;;;5028126;28;19915;-87
2023/10/21 09:47:43;;;;;;;0.00;0.00;;;14.40;99.90;;;;;;5048640;28;20381;-87
2023/10/21 09:50:11;;;;;;;0.00;0.00;;;14.40;99.90;;;;;;5046740;28;20108;-87
2023/10/21 09:52:55;;;;;;;0.00;0.00;;;14.70;99.90;;;;;;5047946;28;20412;-81
2023/10/21 09:55:27;;;;;;;0.10;0.10;;;14.40;99.90;;;;;;5048391;28;20423;-89
2023/10/21 09:57:54;;;;;;;0.50;0.50;;;14.80;99.90;;;;;;5031104;28;20571;-83
2023/10/21 10:00:20;;;;;;;0.00;0.00;;;14.80;99.90;;;;;;5037556;28;20029;-83
2023/10/21 10:02:50;;;;;;;0.00;0.00;;;15.00;99.90;;;;;;5046597;28;20025;-82
2023/10/21 10:05:17;;;;;;;0.20;0.20;;;14.80;99.90;;;;;;5044429;28;20036;-85
2023/10/21 10:07:45;;;;;;;0.00;0.00;;;15.40;99.90;;;;;;5052057;28;20056;-82
2023/10/21 10:10:13;;;;;;;0.00;0.00;;;15.50;99.90;;;;;;5044224;28;20037;-84
2023/10/21 10:12:57;;;;;;;0.00;0.00;;;15.80;99.90;;;;;;5046978;28;20563;-83
2023/10/21 10:15:34;;;;;;;0.00;0.00;;;15.80;99.90;;;;;;5042746;28;20404;-82
2023/10/21 10:18:04;;;;;;;0.00;0.00;;;15.80;99.60;;;;;;5044071;28;20029;-84
2023/10/21 10:20:30;;;;;;;0.00;0.00;;;15.50;99.40;;;;;;5043169;28;20056;-82
2023/10/21 10:23:08;;;;;;;0.00;0.00;;;15.70;99.60;;;;;;5046332;28;20097;-84
2023/10/21 10:25:34;;;;;;;0.28;0.28;;;16.30;98.90;;;;;;5034767;28;20040;-83
2023/10/21 10:28:04;;;;;;;0.00;0.00;;;16.20;97.20;;;;;;5044074;28;20052;-83
2023/10/21 10:30:37;;;;;;;0.00;0.00;;;16.70;95.60;;;;;;5050383;28;20041;-85
2023/10/21 10:33:12;;;;;;;0.00;0.00;;;16.70;97.00;;;;;;5043236;28;20029;-83
2023/10/21 10:35:42;;;;;;;0.00;0.00;;;16.20;95.40;;;;;;5042028;28;20684;-85
2023/10/21 10:38:20;;;;;;;0.00;0.00;;;16.40;95.80;;;;;;5035490;28;20021;-84
2023/10/21 10:40:47;;;;;;;0.00;0.00;;;16.80;95.80;;;;;;5042524;28;20523;-83
2023/10/21 10:43:13;;;;;;;0.00;0.00;;;16.10;96.50;;;;;;5046997;28;20028;-80
2023/10/21 10:45:40;;;;;;;0.10;0.10;;;15.80;97.90;;;;;;5036523;28;20374;-82
2023/10/21 10:48:10;;;;;;;0.10;0.10;;;14.90;97.80;;;;;;5041346;28;20432;-82
2023/10/21 10:50:38;;;;;;;0.10;0.10;;;15.00;97.90;;;;;;5030705;28;20033;-81
2023/10/21 10:53:20;;;;;;;0.00;0.00;;;14.60;98.90;;;;;;5041142;28;20704;-79
2023/10/21 10:55:53;;;;;;;0.10;0.10;;;14.60;99.10;;;;;;5042162;28;20017;-84
2023/10/21 10:58:20;;;;;;;0.00;0.00;;;14.70;99.50;;;;;;5042894;28;20053;-83
2023/10/21 11:00:47;;;;;;;0.00;0.00;;;15.00;99.80;;;;;;5031646;28;20033;-83
2023/10/21 11:03:27;;;;;;;0.00;0.00;;;14.60;99.90;;;;;;5020299;28;20091;-80
2023/10/21 11:05:57;;;;;;;0.00;0.00;;;15.60;99.90;;;;;;5041824;28;20028;-82
2023/10/21 11:08:24;;;;;;;0.00;0.00;;;16.20;99.90;;;;;;5041584;28;20021;-83
2023/10/21 11:10:53;;;;;;;0.00;0.00;;;15.90;98.80;;;;;;5041855;28;20032;-83
2023/10/21 11:13:20;;;;;;;0.00;0.00;;;15.60;99.50;;;;;;5036978;28;20033;-82
2023/10/21 11:15:48;;;;;;;;;;;15.10;99.80;;;;;;5043055;28;20060;-82
2023/10/21 11:18:15;;;;;;;0.10;0.10;;;14.80;99.80;;;;;;5036478;28;19913;-82
2023/10/21 11:20:51;;;;;;;0.00;0.00;;;14.70;99.90;;;;;;5020490;28;20443;-82
2023/10/21 11:23:18;;;;;;;0.00;0.00;;;14.50;99.90;;;;;;5043245;28;20075;-79
2023/10/21 11:25:49;;;;;;;0.10;0.10;;;13.80;99.90;;;;;;5042301;28;20025;-81
2023/10/21 11:28:16;;;;;;;0.25;0.25;;;13.70;99.90;;;;;;5039475;28;20136;-82
2023/10/21 11:30:48;;;;;;;0.10;0.10;;;13.70;99.90;;;;;;5037011;28;20040;-82
2023/10/21 11:33:16;;;;;;;0.32;0.32;;;13.80;99.90;;;;;;5043094;28;20064;-82
2023/10/21 11:35:46;;;;;;;0.00;0.00;;;13.70;99.90;;;;;;5041429;28;20028;-84
2023/10/21 11:38:16;;;;;;;0.00;0.00;;;13.50;99.90;;;;;;5029419;28;20060;-86
2023/10/21 11:40:44;;;;;;;0.00;0.00;;;13.60;99.90;;;;;;5042447;28;20360;-86
2023/10/21 11:43:13;;;;;;;0.17;0.17;;;14.10;99.90;;;;;;5042325;28;20029;-81
2023/10/21 11:45:39;;;;;;;0.00;0.00;;;14.50;99.90;;;;;;5030626;28;20280;-79
2023/10/21 11:48:11;;;;;;;0.00;0.00;;;14.20;99.90;;;;;;5042750;28;20025;-81
2023/10/21 11:50:42;;;;;;;0.03;0.03;;;14.30;99.90;;;;;;5038926;28;20839;-80
2023/10/21 11:53:09;;;;;;;0.10;0.10;;;14.60;99.90;;;;;;5030059;28;20110;-81
2023/10/21 12:34:35;;;;;;;0.38;0.38;;;15.70;99.90;;;;;;5043477;28;20036;-85
2023/10/21 12:39:48;;;;;;;0.00;0.00;;;16.30;99.90;;;;;;5043879;28;20029;-83
2023/10/21 12:43:21;;;;;;;0.00;0.00;;;16.50;99.90;;;;;;5035023;28;20132;-82
2023/10/21 12:45:11;;;;;;;0.00;0.00;;;16.30;99.90;;;;;;5034621;28;20484;-80
2023/10/21 12:47:37;;;;;;;0.00;0.00;;;15.70;99.80;;;;;;5046093;28;20016;-86
2023/10/21 12:50:12;;;;;;;0.00;0.00;;;15.60;99.70;;;;;;5039104;28;20033;-83
2023/10/21 12:52:38;;;;;;;0.00;0.00;;;15.10;99.60;;;;;;5039909;28;20029;-82
2023/10/21 12:55:10;;;;;;;0.08;0.08;;;14.90;99.90;;;;;;5043553;28;20562;-79
2023/10/21 12:57:37;;;;;;;0.00;0.00;;;15.20;99.90;;;;;;5041132;28;20488;-81
2023/10/21 13:00:04;;;;;;;;;;;15.30;99.90;;;;;;5042289;28;20469;-82
2023/10/21 13:02:29;;;;;;;0.00;0.00;;;15.60;99.90;;;;;;5040979;28;19912;-81
2023/10/21 13:04:55;;;;;;;0.00;0.00;;;15.10;99.70;;;;;;5024674;28;20032;-82
2023/10/21 13:07:21;;;;;;;0.83;0.83;;;15.10;99.70;;;;;;5040636;28;20028;-82
2023/10/21 13:09:46;;;;;;;0.10;0.10;;;15.40;99.40;;;;;;5043627;28;20535;-83
2023/10/21 13:12:15;;;;;;;0.00;0.00;;;15.30;99.00;;;;;;5045985;28;20033;-82
2023/10/21 13:14:41;;;;;;;0.03;0.03;;;14.90;99.80;;;;;;5045805;28;20515;-81
2023/10/21 13:17:08;;;;;;;0.10;0.10;;;15.00;99.90;;;;;;5037355;28;20025;-84
2023/10/21 13:19:34;;;;;;;0.00;0.00;;;14.70;99.90;;;;;;5041236;28;20155;-81
2023/10/21 13:21:59;;;;;;;0.00;0.00;;;14.40;99.90;;;;;;5031904;28;20029;-82
2023/10/21 13:24:25;;;;;;;0.10;0.10;;;14.20;99.90;;;;;;5043493;28;20278;-81
2023/10/21 13:26:51;;;;;;;0.00;0.00;;;14.20;99.90;;;;;;5028941;28;20563;-80
2023/10/21 13:29:17;;;;;;;0.00;0.00;;;13.80;99.90;;;;;;5044315;28;20032;-79